Time;durP1;ratioP1;P1;durP2;ratioP2;P2;SDS_P1;SDS_P2;PMS_P1;PMS_P2;Temp;Humidity;BMP_temperature;BMP_pressure;BME280_temperature;BME280_humidity;BME280_pressure;Samples;Min_cycle;Max_cycle;Signal;HPM_P1;HPM_P2
2022/08/18 00:01:39;;;;;;;5.90;5.30;;;21.80;99.90;;;;;;7374376;19;20436;-46
2022/08/18 00:04:08;;;;;;;6.50;5.80;;;22.10;99.90;;;;;;7378880;19;20396;-46
2022/08/18 00:06:38;;;;;;;6.30;5.60;;;22.40;99.20;;;;;;7367607;19;21061;-46
2022/08/18 00:09:09;;;;;;;5.80;5.20;;;22.10;99.90;;;;;;7360954;19;21081;-46
2022/08/18 00:11:42;;;;;;;7.77;5.40;;;22.00;99.90;;;;;;7365760;19;20368;-46
2022/08/18 00:14:18;;;;;;;5.77;5.20;;;22.10;99.90;;;;;;7376620;19;20376;-46
2022/08/18 00:16:48;;;;;;;7.70;6.10;;;22.00;99.90;;;;;;7373885;19;20379;-46
2022/08/18 00:19:17;;;;;;;5.53;5.03;;;22.00;99.90;;;;;;7377571;19;20443;-46
2022/08/18 00:21:47;;;;;;;6.00;5.00;;;22.10;99.40;;;;;;7376503;19;20395;-47
2022/08/18 00:24:16;;;;;;;5.40;4.80;;;22.40;99.40;;;;;;7377866;19;20384;-46
2022/08/18 00:26:46;;;;;;;5.87;5.20;;;22.50;98.00;;;;;;7378034;19;20385;-46
2022/08/18 00:29:20;;;;;;;6.03;5.17;;;22.60;97.10;;;;;;7378025;19;20376;-46
2022/08/18 00:31:50;;;;;;;5.67;5.17;;;22.70;95.60;;;;;;7369440;19;20740;-45
2022/08/18 00:34:19;;;;;;;5.43;4.87;;;22.70;96.30;;;;;;7374408;19;20395;-45
2022/08/18 00:36:49;;;;;;;6.20;5.00;;;22.70;96.00;;;;;;7380272;19;20422;-45
2022/08/18 00:39:18;;;;;;;6.30;5.50;;;22.60;95.70;;;;;;7383287;19;20379;-45
2022/08/18 00:41:48;;;;;;;6.00;5.50;;;22.50;96.40;;;;;;7384554;19;20375;-45
2022/08/18 00:44:20;;;;;;;6.90;5.30;;;22.40;97.10;;;;;;7384258;19;21523;-45
2022/08/18 00:46:49;;;;;;;5.47;4.93;;;22.50;96.80;;;;;;7383901;19;20386;-45
2022/08/18 00:49:19;;;;;;;5.43;4.93;;;22.50;95.20;;;;;;7383526;19;20472;-45
2022/08/18 00:51:52;;;;;;;5.40;4.87;;;22.50;96.20;;;;;;7384857;19;20364;-45
2022/08/18 00:54:28;;;;;;;5.60;4.90;;;22.40;97.60;;;;;;7387621;19;20372;-45
2022/08/18 00:57:02;;;;;;;6.20;5.23;;;22.50;98.40;;;;;;7378072;19;20706;-45
2022/08/18 00:59:41;;;;;;;6.17;5.57;;;22.50;98.20;;;;;;7382709;19;20383;-45
2022/08/18 01:02:14;;;;;;;5.40;4.90;;;22.30;98.60;;;;;;7383913;19;20371;-46
2022/08/18 01:04:49;;;;;;;6.13;5.10;;;22.20;97.10;;;;;;7383778;19;20396;-46
2022/08/18 01:07:22;;;;;;;4.63;4.23;;;22.30;96.50;;;;;;7383878;19;20383;-46
2022/08/18 01:09:53;;;;;;;5.30;4.80;;;22.40;96.30;;;;;;7379272;19;20840;-46
2022/08/18 01:12:22;;;;;;;5.50;5.00;;;22.40;96.30;;;;;;7384878;19;20906;-46
2022/08/18 01:14:56;;;;;;;5.40;4.90;;;22.40;98.30;;;;;;7384725;19;20759;-46
2022/08/18 01:23:06;;;;;;;5.80;5.10;;;21.80;99.90;;;;;;7383343;19;20368;-46
2022/08/18 01:28:22;;;;;;;6.50;5.87;;;21.40;99.90;;;;;;7383515;19;20368;-46
2022/08/18 01:30:56;;;;;;;6.07;5.40;;;21.10;99.90;;;;;;7377623;19;20364;-45
2022/08/18 01:33:31;;;;;;;6.13;5.53;;;21.10;99.90;;;;;;7379315;19;20381;-45
2022/08/18 01:36:02;;;;;;;8.10;5.27;;;21.20;99.90;;;;;;7382848;19;20379;-45
2022/08/18 01:38:37;;;;;;;6.10;5.00;;;21.00;99.90;;;;;;7383179;19;20372;-44
2022/08/18 01:41:07;;;;;;;6.60;5.57;;;20.80;99.90;;;;;;7380995;19;21414;-45
2022/08/18 01:43:37;;;;;;;6.70;5.50;;;20.60;99.90;;;;;;7383141;19;20387;-44
2022/08/18 01:46:07;;;;;;;5.20;4.70;;;20.80;99.90;;;;;;7380528;19;20415;-45
2022/08/18 01:48:41;;;;;;;6.43;5.83;;;20.90;99.90;;;;;;7376311;19;20923;-44
2022/08/18 01:51:13;;;;;;;5.60;5.00;;;21.00;99.90;;;;;;7384043;19;20390;-45
2022/08/18 01:53:48;;;;;;;5.80;5.30;;;20.70;99.90;;;;;;7374901;19;20384;-45
2022/08/18 01:56:19;;;;;;;5.73;5.17;;;20.60;99.90;;;;;;7378250;19;20802;-44
2022/08/18 01:58:49;;;;;;;6.87;6.17;;;20.50;99.90;;;;;;7380975;19;20368;-45
2022/08/18 02:01:22;;;;;;;6.00;5.50;;;20.50;99.90;;;;;;7380107;19;20958;-44
2022/08/18 02:03:54;;;;;;;6.60;5.90;;;20.20;99.90;;;;;;7381233;19;20473;-45
2022/08/18 02:06:23;;;;;;;6.10;5.50;;;20.40;99.90;;;;;;7381960;19;20389;-45
2022/08/18 02:08:55;;;;;;;6.10;5.50;;;20.50;99.90;;;;;;7380850;19;20368;-45
2022/08/18 02:11:25;;;;;;;6.10;5.50;;;20.30;99.90;;;;;;7377877;19;20364;-46
2022/08/18 02:13:54;;;;;;;5.93;5.20;;;20.10;99.90;;;;;;7373434;19;20729;-46
2022/08/18 02:16:24;;;;;;;6.60;5.90;;;20.30;99.90;;;;;;7377094;19;20425;-46
2022/08/18 02:18:53;;;;;;;5.07;4.60;;;20.40;99.90;;;;;;7380808;19;20364;-45
2022/08/18 02:21:25;;;;;;;6.03;5.07;;;20.50;99.90;;;;;;7382456;19;20387;-46
2022/08/18 02:23:57;;;;;;;6.20;5.57;;;20.60;99.90;;;;;;7380301;19;20368;-46
2022/08/18 02:26:27;;;;;;;5.90;5.30;;;20.90;99.90;;;;;;7381338;19;20403;-46
2022/08/18 02:28:56;;;;;;;5.87;5.03;;;20.70;99.90;;;;;;7383967;19;21293;-45
2022/08/18 02:31:27;;;;;;;6.60;5.53;;;20.70;99.90;;;;;;7376189;19;20428;-46
2022/08/18 02:33:59;;;;;;;5.70;5.13;;;20.70;99.90;;;;;;7378890;19;20398;-45
2022/08/18 02:36:28;;;;;;;6.07;5.47;;;20.60;99.90;;;;;;7379283;19;20447;-45
2022/08/18 02:39:00;;;;;;;6.30;5.70;;;20.80;99.90;;;;;;7379583;19;20398;-45
2022/08/18 02:41:31;;;;;;;6.30;5.57;;;20.80;99.90;;;;;;7377878;19;20377;-43
2022/08/18 02:44:01;;;;;;;6.70;6.03;;;20.80;99.90;;;;;;7377486;19;20455;-45
2022/08/18 02:46:33;;;;;;;7.07;5.27;;;20.80;99.90;;;;;;7375512;19;20804;-45
2022/08/18 02:49:03;;;;;;;6.17;5.33;;;21.00;99.90;;;;;;7379902;19;20372;-45
2022/08/18 02:51:33;;;;;;;6.77;5.40;;;21.30;99.90;;;;;;7383765;19;20407;-45
2022/08/18 02:54:08;;;;;;;6.60;5.30;;;21.50;99.90;;;;;;7378574;19;20452;-45
2022/08/18 02:56:40;;;;;;;6.00;4.90;;;21.70;99.90;;;;;;7379165;19;21430;-45
2022/08/18 02:59:12;;;;;;;5.53;5.03;;;21.90;99.90;;;;;;7373124;19;20384;-45
2022/08/18 03:01:43;;;;;;;6.20;5.10;;;21.90;99.90;;;;;;7374554;19;20432;-45
2022/08/18 03:04:18;;;;;;;5.57;4.70;;;21.90;99.90;;;;;;7379051;19;20436;-45
2022/08/18 03:06:48;;;;;;;5.40;4.80;;;22.00;99.90;;;;;;7379588;19;20738;-45
2022/08/18 03:09:20;;;;;;;6.07;5.50;;;22.10;99.90;;;;;;7375767;19;21009;-45
2022/08/18 03:11:53;;;;;;;5.30;4.73;;;22.20;99.90;;;;;;7371997;19;20753;-44
2022/08/18 03:14:23;;;;;;;6.33;5.73;;;22.20;99.90;;;;;;7379322;19;21486;-45
2022/08/18 03:16:53;;;;;;;5.50;5.00;;;22.10;99.90;;;;;;7380259;19;20383;-45
2022/08/18 03:19:23;;;;;;;4.60;4.20;;;22.10;99.90;;;;;;7380905;19;20798;-45
2022/08/18 03:21:53;;;;;;;5.53;5.03;;;22.10;99.90;;;;;;7379637;19;20422;-45
2022/08/18 03:24:30;;;;;;;6.30;5.53;;;22.10;99.90;;;;;;7381251;19;20378;-46
2022/08/18 03:27:02;;;;;;;5.23;4.77;;;22.10;99.90;;;;;;7377602;19;20415;-45
2022/08/18 03:29:32;;;;;;;5.57;5.07;;;22.10;99.90;;;;;;7379449;19;20380;-44
2022/08/18 03:32:02;;;;;;;5.90;5.23;;;22.00;99.90;;;;;;7375476;19;20958;-45
2022/08/18 03:34:32;;;;;;;6.40;5.80;;;21.60;99.90;;;;;;7382889;19;20376;-45
2022/08/18 03:37:01;;;;;;;8.40;5.70;;;21.40;99.90;;;;;;7377395;19;20360;-45
2022/08/18 03:39:36;;;;;;;6.57;5.93;;;21.30;99.90;;;;;;7381536;19;20388;-46
2022/08/18 03:42:07;;;;;;;7.23;6.40;;;21.00;99.90;;;;;;7375064;19;20401;-46
2022/08/18 03:44:38;;;;;;;6.13;5.53;;;20.70;99.90;;;;;;7380573;19;20408;-45
2022/08/18 03:47:11;;;;;;;6.00;5.50;;;20.30;99.90;;;;;;7373376;19;20380;-45
2022/08/18 03:49:41;;;;;;;6.73;5.90;;;20.10;99.90;;;;;;7374234;19;20376;-45
2022/08/18 03:52:11;;;;;;;6.30;5.70;;;20.00;99.90;;;;;;7377144;19;20938;-45
2022/08/18 03:54:43;;;;;;;6.00;5.37;;;20.10;99.90;;;;;;7379628;19;20368;-45
2022/08/18 03:57:14;;;;;;;8.53;6.30;;;20.10;99.90;;;;;;7380362;19;20385;-46
2022/08/18 03:59:46;;;;;;;8.10;5.63;;;20.30;99.90;;;;;;7377535;19;20731;-46
2022/08/18 04:02:17;;;;;;;6.30;5.70;;;20.40;99.90;;;;;;7374644;19;20388;-45
2022/08/18 04:04:47;;;;;;;6.63;5.93;;;20.30;99.90;;;;;;7375266;19;20414;-46
2022/08/18 04:07:17;;;;;;;6.50;5.90;;;20.00;99.90;;;;;;7378979;19;20388;-46
2022/08/18 04:09:52;;;;;;;7.73;6.00;;;19.90;99.90;;;;;;7371907;19;20380;-46
2022/08/18 04:12:21;;;;;;;6.10;5.40;;;20.10;99.90;;;;;;7381261;19;20380;-45
2022/08/18 04:14:52;;;;;;;5.90;5.37;;;20.30;99.90;;;;;;7384269;19;20432;-46
2022/08/18 04:17:24;;;;;;;7.20;6.40;;;20.40;99.90;;;;;;7384710;19;20371;-45
2022/08/18 04:19:55;;;;;;;6.80;6.03;;;20.40;99.90;;;;;;7388052;19;20396;-46
2022/08/18 04:22:25;;;;;;;9.47;5.90;;;20.20;99.90;;;;;;7385215;19;20494;-45
2022/08/18 04:24:57;;;;;;;5.90;5.30;;;20.10;99.90;;;;;;7385591;19;20380;-45
2022/08/18 04:27:30;;;;;;;6.27;5.50;;;20.20;99.90;;;;;;7386442;19;20488;-46
2022/08/18 04:30:00;;;;;;;6.30;5.70;;;20.00;99.90;;;;;;7385283;19;20368;-45
2022/08/18 04:32:31;;;;;;;6.63;6.03;;;20.10;99.90;;;;;;7383797;19;20376;-46
2022/08/18 04:35:01;;;;;;;7.47;6.27;;;20.10;99.90;;;;;;7384026;19;20883;-45
2022/08/18 04:37:31;;;;;;;7.90;6.50;;;19.70;99.90;;;;;;7372843;19;20380;-45
2022/08/18 04:40:07;;;;;;;6.37;5.73;;;19.70;99.90;;;;;;7384624;19;20417;-45
2022/08/18 04:42:36;;;;;;;6.27;5.67;;;19.90;99.90;;;;;;7387046;19;20397;-45
2022/08/18 04:45:07;;;;;;;7.33;5.70;;;20.00;99.90;;;;;;7374552;19;20376;-45
2022/08/18 04:47:37;;;;;;;7.40;5.90;;;19.90;99.90;;;;;;7384253;19;20393;-45
2022/08/18 04:50:07;;;;;;;7.30;6.50;;;20.00;99.90;;;;;;7386602;19;20380;-45
2022/08/18 04:55:21;;;;;;;6.30;5.70;;;20.30;99.90;;;;;;7383909;19;21526;-45
2022/08/18 04:57:50;;;;;;;6.70;6.07;;;20.40;99.90;;;;;;7387356;19;20379;-44
2022/08/18 05:00:20;;;;;;;6.50;5.87;;;20.10;99.90;;;;;;7373926;19;20436;-44
2022/08/18 05:02:51;;;;;;;7.67;6.13;;;20.10;99.90;;;;;;7385259;19;20383;-44
2022/08/18 05:05:20;;;;;;;6.03;5.43;;;20.10;99.90;;;;;;7380629;19;20435;-45
2022/08/18 05:07:51;;;;;;;5.97;5.20;;;20.30;99.90;;;;;;7383589;19;20388;-45
2022/08/18 05:10:23;;;;;;;6.57;5.97;;;20.40;99.90;;;;;;7376644;19;20369;-44
2022/08/18 05:12:52;;;;;;;7.53;6.53;;;20.50;99.90;;;;;;7384497;19;20910;-45
2022/08/18 05:15:22;;;;;;;6.77;6.17;;;20.70;99.90;;;;;;7382557;19;20455;-45
2022/08/18 05:17:52;;;;;;;6.30;5.70;;;20.90;99.90;;;;;;7381863;19;20901;-45
2022/08/18 05:20:22;;;;;;;7.50;6.50;;;21.10;99.90;;;;;;7382425;19;20470;-46
2022/08/18 05:22:51;;;;;;;7.63;6.30;;;21.20;99.90;;;;;;7382833;19;20922;-45
2022/08/18 05:25:23;;;;;;;7.40;6.00;;;21.30;99.90;;;;;;7382118;19;20376;-45
2022/08/18 05:27:52;;;;;;;7.80;6.00;;;21.40;99.90;;;;;;7378644;19;20384;-46
2022/08/18 05:30:22;;;;;;;7.27;6.10;;;21.40;99.90;;;;;;7379696;19;20372;-46
2022/08/18 05:32:53;;;;;;;6.70;6.10;;;21.40;99.90;;;;;;7382287;19;20376;-46
2022/08/18 05:35:30;;;;;;;8.70;6.40;;;21.70;99.90;;;;;;7380475;19;20412;-45
2022/08/18 05:38:17;;;;;;;11.13;8.43;;;21.90;99.90;;;;;;7385057;19;20921;-46
2022/08/18 05:41:04;;;;;;;6.50;5.90;;;22.20;99.90;;;;;;7384812;19;20464;-46
2022/08/18 05:43:34;;;;;;;7.60;6.87;;;22.20;99.90;;;;;;7382181;19;20380;-46
2022/08/18 05:46:06;;;;;;;7.10;6.10;;;22.30;99.90;;;;;;7383964;19;20969;-46
2022/08/18 05:48:37;;;;;;;7.43;6.53;;;22.30;99.90;;;;;;7380679;19;20391;-47
2022/08/18 05:51:15;;;;;;;7.13;6.43;;;22.40;99.20;;;;;;7386053;19;21127;-46
2022/08/18 05:56:50;;;;;;;6.90;6.17;;;22.70;95.60;;;;;;7379655;19;20455;-46
2022/08/18 05:59:25;;;;;;;6.50;5.87;;;22.80;94.60;;;;;;7384489;19;20372;-46
2022/08/18 06:02:00;;;;;;;7.33;6.07;;;22.80;94.50;;;;;;7381250;19;20443;-46
2022/08/18 06:04:41;;;;;;;6.13;5.53;;;22.90;94.00;;;;;;7215670;19;3008496;-46
2022/08/18 06:07:17;;;;;;;10.00;6.80;;;23.00;93.70;;;;;;7379265;19;20127;-46
2022/08/18 06:09:52;;;;;;;6.73;6.03;;;22.90;93.90;;;;;;7380718;19;20487;-46
2022/08/18 06:12:29;;;;;;;6.97;6.00;;;22.90;93.70;;;;;;7385488;19;20373;-46
2022/08/18 06:15:04;;;;;;;7.20;6.40;;;22.60;95.50;;;;;;7382975;19;20372;-46
2022/08/18 06:17:58;;;;;;;8.30;6.87;;;22.60;95.60;;;;;;7382755;19;20364;-46
2022/08/18 06:20:33;;;;;;;9.03;6.50;;;22.80;93.70;;;;;;7381886;19;20368;-46
2022/08/18 06:23:26;;;;;;;6.33;5.60;;;22.90;93.60;;;;;;7382809;19;20524;-46
2022/08/18 06:26:05;;;;;;;6.67;5.97;;;23.10;93.00;;;;;;7384085;19;20372;-46
2022/08/18 06:28:50;;;;;;;6.50;5.80;;;23.20;91.80;;;;;;7378727;19;20387;-46
2022/08/18 06:31:24;;;;;;;8.33;6.80;;;23.30;91.60;;;;;;7380494;19;20368;-46
2022/08/18 06:34:04;;;;;;;8.40;6.60;;;23.30;91.50;;;;;;7383047;19;20375;-46
2022/08/18 06:36:44;;;;;;;8.83;6.67;;;23.10;91.90;;;;;;7382451;19;20384;-46
2022/08/18 06:39:20;;;;;;;8.00;6.97;;;23.30;91.70;;;;;;7379197;19;20365;-46
2022/08/18 06:41:52;;;;;;;8.00;6.80;;;23.40;90.90;;;;;;7378627;19;20391;-46
2022/08/18 06:44:33;;;;;;;6.60;6.00;;;23.50;91.30;;;;;;7378319;19;20918;-46
2022/08/18 06:47:10;;;;;;;8.07;7.20;;;23.60;90.30;;;;;;7381835;19;20422;-46
2022/08/18 06:49:45;;;;;;;6.87;6.20;;;23.50;90.70;;;;;;7378166;19;20387;-47
2022/08/18 06:52:27;;;;;;;7.20;5.90;;;23.60;90.30;;;;;;7383428;19;20367;-47
2022/08/18 06:54:59;;;;;;;16.43;13.70;;;23.70;89.50;;;;;;7378088;19;20542;-47
2022/08/18 06:57:33;;;;;;;7.50;6.67;;;23.90;89.40;;;;;;7378403;19;20376;-47
2022/08/18 07:00:10;;;;;;;6.93;6.23;;;24.00;87.60;;;;;;7378588;19;20431;-47
2022/08/18 07:02:49;;;;;;;7.13;6.53;;;24.20;83.60;;;;;;7381763;19;20376;-47
2022/08/18 07:05:25;;;;;;;7.50;6.13;;;24.20;82.10;;;;;;7382121;19;21436;-47
2022/08/18 07:08:11;;;;;;;9.67;6.40;;;24.30;81.40;;;;;;7380387;19;20452;-47
2022/08/18 07:10:44;;;;;;;8.43;7.47;;;24.40;79.50;;;;;;7375718;19;20396;-46
2022/08/18 07:13:24;;;;;;;7.83;6.20;;;24.30;80.80;;;;;;7383815;19;20372;-47
2022/08/18 07:16:19;;;;;;;6.20;5.60;;;24.40;80.20;;;;;;7381255;19;20396;-45
2022/08/18 07:18:50;;;;;;;8.00;6.60;;;24.40;78.60;;;;;;7380726;19;20380;-46
2022/08/18 07:21:27;;;;;;;7.07;6.37;;;24.50;78.40;;;;;;7378578;19;20928;-46
2022/08/18 07:24:02;;;;;;;9.97;7.00;;;24.70;77.30;;;;;;7366463;19;20999;-46
2022/08/18 07:26:32;;;;;;;7.10;6.37;;;24.60;76.10;;;;;;7365451;19;21443;-47
2022/08/18 07:29:16;;;;;;;8.57;7.77;;;24.50;76.70;;;;;;7381922;19;20391;-46
2022/08/18 07:31:53;;;;;;;6.67;6.07;;;24.60;76.40;;;;;;7380450;19;20376;-46
2022/08/18 07:34:27;;;;;;;7.23;6.10;;;24.50;76.70;;;;;;7374106;19;20379;-46
2022/08/18 07:37:02;;;;;;;8.50;6.97;;;24.50;76.40;;;;;;7384390;19;20380;-46
2022/08/18 07:39:39;;;;;;;10.90;9.27;;;24.50;77.60;;;;;;7379439;19;20383;-46
2022/08/18 07:42:16;;;;;;;6.90;6.20;;;24.50;77.60;;;;;;7378663;19;21066;-46
2022/08/18 07:44:55;;;;;;;7.50;6.80;;;24.30;76.60;;;;;;7381001;19;20749;-46
2022/08/18 07:47:33;;;;;;;6.80;6.00;;;24.10;78.50;;;;;;7383807;19;20379;-46
2022/08/18 07:50:04;;;;;;;7.70;6.90;;;24.10;78.70;;;;;;7374000;19;20820;-46
2022/08/18 07:52:41;;;;;;;8.97;6.80;;;24.10;78.70;;;;;;7375654;19;20929;-46
2022/08/18 07:55:20;;;;;;;6.60;5.90;;;24.10;77.50;;;;;;7373649;19;20905;-46
2022/08/18 07:57:56;;;;;;;6.43;5.70;;;24.20;76.50;;;;;;7378221;19;20893;-46
2022/08/18 08:00:37;;;;;;;7.33;5.77;;;24.30;75.70;;;;;;7372675;19;20444;-46
2022/08/18 08:03:24;;;;;;;5.67;5.17;;;24.40;75.30;;;;;;7362325;19;20365;-46
2022/08/18 08:06:02;;;;;;;5.67;5.10;;;24.30;76.50;;;;;;7373684;19;20451;-46
2022/08/18 08:08:41;;;;;;;6.10;5.50;;;24.30;77.00;;;;;;7377829;19;20416;-46
2022/08/18 08:11:22;;;;;;;6.17;5.67;;;24.30;77.20;;;;;;7381650;19;20376;-46
2022/08/18 08:14:07;;;;;;;6.47;5.87;;;24.20;77.70;;;;;;7382093;19;20938;-46
2022/08/18 08:16:50;;;;;;;6.83;6.00;;;24.20;77.80;;;;;;7381341;19;20411;-46
2022/08/18 08:19:49;;;;;;;9.10;6.70;;;24.00;79.40;;;;;;7381311;19;20384;-48
2022/08/18 08:22:25;;;;;;;6.43;5.77;;;24.00;80.10;;;;;;7380384;19;20764;-46
2022/08/18 08:25:06;;;;;;;8.43;6.30;;;23.70;81.60;;;;;;7382879;19;21134;-46
2022/08/18 08:27:51;;;;;;;7.17;6.27;;;23.90;80.90;;;;;;7381545;19;20383;-46
2022/08/18 08:30:23;;;;;;;9.20;6.40;;;23.90;80.00;;;;;;7380929;19;20937;-45
2022/08/18 08:33:05;;;;;;;8.27;6.37;;;24.10;79.20;;;;;;7380808;19;20375;-45
2022/08/18 08:35:44;;;;;;;9.00;6.03;;;24.20;78.70;;;;;;7383235;19;20376;-45
2022/08/18 08:38:16;;;;;;;6.80;6.10;;;24.40;77.70;;;;;;7382662;19;20385;-45
2022/08/18 08:40:54;;;;;;;13.20;6.47;;;24.30;78.30;;;;;;7378908;19;20409;-45
2022/08/18 08:43:31;;;;;;;6.80;5.93;;;24.50;77.00;;;;;;7379280;19;20402;-45
2022/08/18 08:46:08;;;;;;;6.30;5.70;;;24.70;76.10;;;;;;7383355;19;20439;-45
2022/08/18 08:48:45;;;;;;;5.40;4.90;;;24.90;74.70;;;;;;7380952;19;20384;-45
2022/08/18 08:51:41;;;;;;;7.00;6.40;;;25.20;73.50;;;;;;7382792;19;20379;-45
2022/08/18 08:54:18;;;;;;;5.97;5.47;;;25.50;72.10;;;;;;7379005;19;20778;-45
2022/08/18 08:56:52;;;;;;;6.43;5.83;;;25.70;70.70;;;;;;7383542;19;20376;-46
2022/08/18 08:59:24;;;;;;;6.53;6.00;;;25.90;69.00;;;;;;7386397;19;20379;-46
2022/08/18 09:02:06;;;;;;;7.90;6.23;;;25.80;68.90;;;;;;7387349;19;20440;-45
2022/08/18 09:04:48;;;;;;;7.20;6.50;;;25.80;69.60;;;;;;7388167;19;20786;-45
2022/08/18 09:07:34;;;;;;;6.43;5.63;;;25.80;69.80;;;;;;7390312;19;21291;-46
2022/08/18 09:10:34;;;;;;;6.67;6.07;;;25.90;68.60;;;;;;7384319;19;20384;-46
2022/08/18 09:13:23;;;;;;;11.53;7.10;;;25.90;68.50;;;;;;7389698;19;20962;-45
2022/08/18 09:16:13;;;;;;;6.53;5.93;;;25.80;69.60;;;;;;7386784;19;20372;-45
2022/08/18 09:18:52;;;;;;;6.93;6.27;;;26.10;68.90;;;;;;7387083;19;20441;-45
2022/08/18 09:21:36;;;;;;;6.40;5.60;;;26.70;66.50;;;;;;7388565;19;20748;-45
2022/08/18 09:24:27;;;;;;;6.83;6.23;;;27.10;63.90;;;;;;7386217;19;20379;-46
2022/08/18 09:27:17;;;;;;;6.73;6.03;;;27.20;62.80;;;;;;7388975;19;20379;-45
2022/08/18 09:29:54;;;;;;;6.40;5.83;;;27.00;64.30;;;;;;7385265;19;20980;-45
2022/08/18 09:32:39;;;;;;;7.23;6.23;;;;;;;;;;7386683;19;20465;-46
2022/08/18 09:35:19;;;;;;;5.50;5.10;;;28.00;60.60;;;;;;7385252;19;20372;-46
2022/08/18 09:41:30;;;;;;;8.50;6.33;;;28.60;60.00;;;;;;7387848;19;20379;-46
2022/08/18 09:43:39;;;;;;;6.83;6.00;;;30.00;55.70;;;;;;7388382;19;20922;-46
2022/08/18 09:46:11;;;;;;;6.70;6.10;;;30.20;55.00;;;;;;7388529;19;20402;-46
2022/08/18 09:48:43;;;;;;;6.70;5.70;;;30.70;54.00;;;;;;7386870;19;20380;-46
2022/08/18 09:51:35;;;;;;;7.57;6.63;;;30.20;54.00;;;;;;7384267;19;20946;-46
2022/08/18 09:54:16;;;;;;;5.87;5.27;;;30.20;54.10;;;;;;7385126;19;20375;-46
2022/08/18 09:57:18;;;;;;;7.50;6.80;;;29.90;54.20;;;;;;7386275;19;20384;-46
2022/08/18 10:00:21;;;;;;;7.27;6.67;;;29.90;55.00;;;;;;7386919;19;20367;-46
2022/08/18 10:03:17;;;;;;;6.33;5.83;;;29.80;55.60;;;;;;7388513;19;20376;-46
2022/08/18 10:06:07;;;;;;;6.27;5.70;;;29.80;55.90;;;;;;7386382;19;20384;-46
2022/08/18 10:09:17;;;;;;;12.00;7.13;;;30.20;55.50;;;;;;7385031;19;20432;-46
2022/08/18 10:12:26;;;;;;;6.40;5.80;;;30.90;53.60;;;;;;7380329;19;21029;-46
2022/08/18 10:15:20;;;;;;;6.23;5.73;;;32.30;51.30;;;;;;7384047;19;20439;-46
2022/08/18 10:18:02;;;;;;;6.67;5.97;;;32.80;50.10;;;;;;7386433;19;20918;-45
2022/08/18 10:20:43;;;;;;;7.67;6.83;;;32.90;49.00;;;;;;7387444;19;20376;-46
2022/08/18 10:23:13;;;;;;;6.40;5.70;;;32.60;50.10;;;;;;7387174;19;20883;-47
2022/08/18 10:25:48;;;;;;;7.77;7.07;;;32.80;49.00;;;;;;7384727;19;20458;-46
2022/08/18 10:28:47;;;;;;;7.50;6.90;;;33.40;47.70;;;;;;7384893;19;20907;-46
2022/08/18 10:31:24;;;;;;;6.17;5.43;;;34.40;46.30;;;;;;7383901;19;20364;-47
2022/08/18 10:34:04;;;;;;;7.00;6.40;;;35.00;45.40;;;;;;7385984;19;20388;-47
2022/08/18 10:36:46;;;;;;;6.00;5.60;;;35.60;43.50;;;;;;7381274;19;20902;-47
2022/08/18 10:39:18;;;;;;;8.03;5.90;;;36.20;42.50;;;;;;7384740;19;20376;-47
2022/08/18 10:41:59;;;;;;;6.57;5.90;;;36.70;42.10;;;;;;7382314;19;20384;-48
2022/08/18 10:44:29;;;;;;;6.10;5.53;;;;;;;;;;7384795;19;20387;-49
2022/08/18 10:47:03;;;;;;;6.53;5.93;;;37.90;39.10;;;;;;7384862;19;20388;-48
2022/08/18 10:49:36;;;;;;;7.43;6.80;;;38.00;39.40;;;;;;7385651;19;20473;-48
2022/08/18 10:52:30;;;;;;;6.47;5.97;;;37.10;40.00;;;;;;7383528;19;20469;-48
2022/08/18 10:55:21;;;;;;;7.63;6.93;;;36.60;40.70;;;;;;7382813;19;20426;-48
2022/08/18 10:58:21;;;;;;;7.00;6.40;;;35.90;42.00;;;;;;7385891;19;20440;-48
2022/08/18 11:01:11;;;;;;;8.80;8.10;;;36.00;41.70;;;;;;7376947;19;20446;-48
2022/08/18 11:04:04;;;;;;;7.60;7.00;;;36.00;40.70;;;;;;7384018;19;20380;-48
2022/08/18 11:06:43;;;;;;;7.23;6.63;;;36.40;40.60;;;;;;7381823;19;20380;-48
2022/08/18 11:09:15;;;;;;;7.53;6.93;;;36.90;39.80;;;;;;7383061;19;20384;-48
2022/08/18 11:11:46;;;;;;;7.03;6.53;;;36.20;40.60;;;;;;7382198;19;20796;-48
2022/08/18 11:14:35;;;;;;;7.07;6.47;;;35.30;42.20;;;;;;7386170;19;20380;-48
2022/08/18 11:17:14;;;;;;;7.67;6.97;;;35.10;42.50;;;;;;7384101;19;21483;-48
2022/08/18 11:19:48;;;;;;;7.87;7.20;;;34.80;42.30;;;;;;7383116;19;20415;-48
2022/08/18 11:22:25;;;;;;;7.20;6.60;;;34.80;42.80;;;;;;7380335;19;20762;-48
2022/08/18 11:24:57;;;;;;;8.37;7.57;;;34.70;42.60;;;;;;7382485;19;20416;-48
2022/08/18 11:27:28;;;;;;;7.47;6.77;;;34.10;43.80;;;;;;7384427;19;20376;-48
2022/08/18 11:30:03;;;;;;;9.87;8.87;;;33.80;44.30;;;;;;7383284;19;20376;-48
2022/08/18 11:32:35;;;;;;;9.60;8.53;;;33.50;44.90;;;;;;7382034;19;20384;-48
2022/08/18 11:35:17;;;;;;;7.70;6.97;;;32.90;45.70;;;;;;7384751;19;20410;-48
2022/08/18 11:37:50;;;;;;;8.50;7.80;;;32.40;46.60;;;;;;7382681;19;20806;-48
2022/08/18 11:40:35;;;;;;;8.40;7.60;;;31.70;47.80;;;;;;7380520;19;20387;-48
2022/08/18 11:43:07;;;;;;;7.63;6.93;;;31.50;48.60;;;;;;7383848;19;20375;-49
2022/08/18 11:45:53;;;;;;;7.60;6.90;;;31.30;48.70;;;;;;7382667;19;20379;-48
2022/08/18 11:48:34;;;;;;;8.80;8.10;;;31.20;49.10;;;;;;7381788;19;20432;-47
2022/08/18 11:51:13;;;;;;;8.47;7.67;;;30.90;49.70;;;;;;7382072;19;20920;-48
2022/08/18 11:53:56;;;;;;;10.20;9.20;;;30.70;50.10;;;;;;7380501;19;20813;-48
2022/08/18 11:56:28;;;;;;;9.57;8.57;;;30.70;50.30;;;;;;7381014;19;20930;-48
2022/08/18 11:59:01;;;;;;;10.30;7.97;;;31.00;49.60;;;;;;7383849;19;20983;-48
2022/08/18 12:01:49;;;;;;;10.23;7.97;;;31.70;48.10;;;;;;7380036;19;20475;-47
2022/08/18 12:04:25;;;;;;;8.27;7.47;;;32.00;47.70;;;;;;7381412;19;20415;-47
2022/08/18 12:07:08;;;;;;;10.07;9.17;;;31.60;48.20;;;;;;7382888;19;20879;-47
2022/08/18 12:09:42;;;;;;;8.37;7.67;;;31.00;49.10;;;;;;7378404;19;20470;-47
2022/08/18 12:12:21;;;;;;;9.27;8.40;;;30.90;49.50;;;;;;7383320;19;20380;-48
2022/08/18 12:14:57;;;;;;;7.73;6.93;;;31.20;49.00;;;;;;7381769;19;20376;-48
2022/08/18 12:17:27;;;;;;;8.67;7.80;;;31.20;49.10;;;;;;7383376;19;20372;-47
2022/08/18 12:19:58;;;;;;;8.80;7.90;;;31.50;48.70;;;;;;7382620;19;20419;-48
2022/08/18 12:22:33;;;;;;;8.67;7.80;;;32.00;46.70;;;;;;7380348;19;20495;-48
2022/08/18 12:25:04;;;;;;;7.77;7.07;;;33.10;45.10;;;;;;7379524;19;20391;-48
2022/08/18 12:27:33;;;;;;;9.27;7.67;;;33.60;43.50;;;;;;7380939;19;20480;-48
2022/08/18 12:30:08;;;;;;;8.33;7.23;;;34.30;42.30;;;;;;7379797;19;20372;-48
2022/08/18 12:32:41;;;;;;;7.87;7.20;;;34.90;41.90;;;;;;7382237;19;20440;-48
2022/08/18 12:35:14;;;;;;;8.53;7.83;;;35.70;40.60;;;;;;7389177;19;20535;-47
2022/08/18 12:37:47;;;;;;;8.23;7.53;;;36.40;39.50;;;;;;7390683;19;20399;-48
2022/08/18 12:40:16;;;;;;;8.50;7.70;;;36.50;39.20;;;;;;7388151;19;20380;-48
2022/08/18 12:42:51;;;;;;;9.30;7.70;;;36.60;39.20;;;;;;7383945;19;20399;-47
2022/08/18 12:45:25;;;;;;;7.50;6.90;;;36.40;38.90;;;;;;7388736;19;20383;-47
2022/08/18 12:47:55;;;;;;;6.90;6.30;;;35.50;39.60;;;;;;7386328;19;20382;-47
2022/08/18 12:50:27;;;;;;;7.20;6.60;;;34.60;41.30;;;;;;7384983;19;20368;-47
2022/08/18 12:52:59;;;;;;;6.90;6.23;;;35.00;40.20;;;;;;7387194;19;20912;-47
2022/08/18 12:55:31;;;;;;;7.13;6.53;;;35.80;39.00;;;;;;7386824;19;20368;-47
2022/08/18 12:58:00;;;;;;;7.40;6.80;;;36.50;37.90;;;;;;7384271;19;20380;-47
2022/08/18 13:00:29;;;;;;;7.03;6.10;;;37.40;36.70;;;;;;7385581;19;20428;-47
2022/08/18 13:03:01;;;;;;;7.80;7.10;;;38.20;35.40;;;;;;7386395;19;20944;-48
2022/08/18 13:05:31;;;;;;;7.03;6.43;;;38.60;34.90;;;;;;7386583;19;20380;-48
2022/08/18 13:08:06;;;;;;;7.97;6.80;;;38.80;34.90;;;;;;7387596;19;20387;-48
2022/08/18 13:10:36;;;;;;;7.37;6.63;;;38.00;35.30;;;;;;7388214;19;20400;-48
2022/08/18 13:13:06;;;;;;;7.27;6.67;;;38.00;35.50;;;;;;7387036;19;20364;-48
2022/08/18 13:15:37;;;;;;;6.03;5.57;;;38.00;35.50;;;;;;7388862;19;21119;-48
2022/08/18 13:18:07;;;;;;;7.23;6.63;;;37.80;35.50;;;;;;7363017;19;20432;-48
2022/08/18 13:20:36;;;;;;;7.67;6.97;;;37.60;35.90;;;;;;7385722;19;20416;-47
2022/08/18 13:23:11;;;;;;;7.90;7.20;;;37.30;36.30;;;;;;7387827;19;20910;-47
2022/08/18 13:25:40;;;;;;;7.90;7.20;;;37.30;36.20;;;;;;7386996;19;20376;-47
2022/08/18 13:28:13;;;;;;;6.90;6.40;;;36.50;36.90;;;;;;7387151;19;20383;-47
2022/08/18 13:30:44;;;;;;;7.90;7.20;;;36.10;38.00;;;;;;7387661;19;20384;-47
2022/08/18 13:33:14;;;;;;;8.40;7.60;;;34.90;39.20;;;;;;7389148;19;20391;-47
2022/08/18 13:35:48;;;;;;;7.90;7.30;;;34.10;40.80;;;;;;7383420;19;20420;-47
2022/08/18 13:38:22;;;;;;;7.73;7.03;;;33.80;42.10;;;;;;7386559;19;20384;-47
2022/08/18 13:40:52;;;;;;;8.27;7.10;;;33.80;42.10;;;;;;7386377;19;20410;-47
2022/08/18 13:43:28;;;;;;;7.63;6.93;;;33.40;43.10;;;;;;7386665;19;20376;-47
2022/08/18 13:45:58;;;;;;;7.80;6.90;;;33.40;43.00;;;;;;7386505;19;20481;-46
2022/08/18 13:48:28;;;;;;;7.20;6.50;;;33.30;43.00;;;;;;7387852;19;20970;-47